Aérodrome :
LOGIN :

S'inscrire | Disclaimer

   EN    FR    IT 

 










Légende :    VFR   VFR Marginal   IFR   IFR Intensif   IFR Très Intensif
Visi : 
Plafond : 
>= 8 km
>= 3000ft
5 à 8 km
1000 à 3000 ft
1500m à 5 km
500 à 1000 ft
800 à 1500m
200 à 500 ft
< 800m
< 200 ft
Symboles :   Orages  Brouillard  Fortes neiges  Fortes précipitations  Vent > 20 kt
SIGMETs :   Divers  Orages  Givrage  Turbulence  Onde Orograph.  Cendres Volcan.






- Altitude de l'aérodrome : 256 ft
- Code IATA : CFR


LFRK - Caen

DERNIER METAR :
  • 202130Z AUTO 32005KT CAVOK 20/17 Q1007

METARs EXPIRÉS :
  • 202100Z AUTO 30004KT CAVOK 20/17 Q1007
  • 202030Z AUTO 29006KT 9999 ///CB 20/17 Q1007
  • 202000Z AUTO 28011KT 9999 FEW035/// OVC070/// ///CB 21/17 Q1007 TEMPO VRB15G25KT 1200 TSRA BKN008
  • 201930Z AUTO 25011KT 9999 BKN032/// BKN048/// OVC074/// ///TCU 23/17 Q1007 TEMPO VRB15G25KT 1200 TSRA BKN030CB
  • 201900Z AUTO 23009KT 9999 FEW036/// BKN048/// BKN060/// ///CB 23/16 Q1006 TEMPO VRB15G25KT 1200 TSRA BKN008
  • 201830Z AUTO 23010KT 9999 SCT039/// BKN046/// BKN060/// ///CB 24/16 Q1006 TEMPO VRB15G25KT 1200 TSRA BKN008
  • 201800Z AUTO 22007KT 9999 SCT039/// BKN046/// BKN160/// ///TCU 24/16 Q1006 TEMPO VRB15G25KT 1200 TSRA BKN030CB
  • 201730Z AUTO 24005KT 210V270 9999 FEW045 BKN076 24/16 Q1006 TEMPO VRB15G25KT 1200 TSRA BKN030CB
  • 201700Z AUTO 24005KT 190V270 9999 FEW044 BKN078 25/16 Q1006 TEMPO VRB15G25KT 1200 TSRA BKN030CB

TAF TAF LFRK
Valide du 20 à 15h jusqu'au 21 à 00h UTC


201400Z 2015/2024 VRB05KT 9999 SCT030
TEMPO 2015/2022 3000 SHRA BKN030CB
PROB40
TEMPO 2015/2022 VRB15G25KT 1200 TSRA BKN012
PROB30
TEMPO 2018/2024 BKN008
Météo : +33 2 31 26 68 11



MET'MAP, la Météo Aéronautique d'un coup d'oeil ! - Copyright ORBIFLY Décembre 2007 - Disclaimer

ORBIFLY MET'MAP TEAM :

Programmation & Développement : Alexandra Zaïnal
Sur une idée originale de : Baudouin d'Aumeries
Soutien technique & logistique : Manuel Goepfert
Assistance : Marc-Olivier Méhu




SOURCES & CREDITS :

   NOAA